This is the latest recevied weather packets stored in our database for station/object SV1BYK-2. If no packets are shown the sender has not sent any weather packets the latest 10 day(s).
| Time | Temp. | Humidity | Pressure | Rain* | Wind** | Luminosity | Snow |
|---|---|---|---|---|---|---|---|
| 1778247904 | 24.44° C | 44% | 1009.1 hPa | 0 mm | - | 0 W/m² | - |
| 1778247364 | 24.44° C | 44% | 1009.4 hPa | 0 mm | - | 0 W/m² | - |
| 1778246957 | 25° C | 43% | 1009.5 hPa | 0 mm | - | 0 W/m² | - |
| 1778246415 | 23.89° C | 45% | 1009.4 hPa | 0 mm | - | 0 W/m² | - |
| 1778245877 | 22.78° C | 45% | 1009.6 hPa | 0 mm | - | 0 W/m² | - |
| 1778245204 | 23.33° C | 45% | 1009.8 hPa | 0 mm | - | 0 W/m² | - |
| 1778244976 | 23.33° C | 45% | 1010 hPa | 0 mm | - | 0 W/m² | - |
| 1778244303 | 22.78° C | 44% | 1010 hPa | 0 mm | - | 0 W/m² | - |
| 1778243896 | 22.78° C | 43% | 1010.2 hPa | 0 mm | - | 0 W/m² | - |
| 1778243358 | 22.78° C | 42% | 1010.4 hPa | 0 mm | - | 0 W/m² | - |
| 1778242684 | 22.78° C | 43% | 1010.6 hPa | 0 mm | - | 0 W/m² | - |
| 1778242278 | 22.22° C | 43% | 1010.9 hPa | 0 mm | - | 0 W/m² | - |
| 1778241735 | 22.22° C | 47% | 1010.7 hPa | 0 mm | - | 0 W/m² | - |
| 1778241377 | 22.22° C | 48% | 1010.6 hPa | 0 mm | - | 0 W/m² | - |
| 1778240703 | 22.78° C | 50% | 1010.4 hPa | 0 mm | - | 0 W/m² | - |
| 1778240296 | 22.22° C | 43% | 1010.7 hPa | 0 mm | - | 0 W/m² | - |
| 1778239624 | 22.22° C | 47% | 1010.4 hPa | 0 mm | - | 0 W/m² | - |
| 1778239084 | 22.22° C | 47% | 1010.8 hPa | 0 mm | - | 0 W/m² | - |
| 1778238544 | 22.22° C | 47% | 1011.2 hPa | 0 mm | - | 0 W/m² | - |
| 1778238004 | 21.11° C | 48% | 1011 hPa | 0 mm | - | 0 W/m² | - |
| 1778237643 | 21.67° C | 48% | 1011.5 hPa | 0 mm | - | 0 W/m² | - |
| 1778237103 | 21.67° C | 49% | 1011.4 hPa | 0 mm | - | 0 W/m² | - |
| 1778236563 | 21.67° C | 47% | 1011.6 hPa | 0 mm | - | 0 W/m² | - |
| 1778236154 | 21.11° C | 48% | 1011.9 hPa | 0 mm | - | 0 W/m² | - |
| 1778235616 | 21.67° C | 47% | 1011.8 hPa | 0 mm | - | 0 W/m² | - |
* Rain latest hour (hover to see other rain measurements)
** Current wind speed in m/s (hover to see current wind gust speed)